sensor_id;sensor_type;location;lat;lon;timestamp;pressure;altitude;pressure_sealevel;temperature
76541;BMP280;65385;55.772;37.658;2023-03-14T00:00:42;99470.09;;;-3.25
76541;BMP280;65385;55.772;37.658;2023-03-14T00:01:46;99467.56;;;-3.25
76541;BMP280;65385;55.772;37.658;2023-03-14T00:02:51;99462.59;;;-3.26
76541;BMP280;65385;55.772;37.658;2023-03-14T00:03:52;99463.91;;;-3.22
76541;BMP280;65385;55.772;37.658;2023-03-14T00:04:56;99456.38;;;-3.24
76541;BMP280;65385;55.772;37.658;2023-03-14T00:06:02;99457.97;;;-3.23
76541;BMP280;65385;55.772;37.658;2023-03-14T00:07:03;99455.25;;;-3.21
76541;BMP280;65385;55.772;37.658;2023-03-14T00:08:04;99450.75;;;-3.19
76541;BMP280;65385;55.772;37.658;2023-03-14T00:09:04;99444.69;;;-3.18
76541;BMP280;65385;55.772;37.658;2023-03-14T00:10:08;99450.59;;;-3.18
76541;BMP280;65385;55.772;37.658;2023-03-14T00:11:18;99443.09;;;-3.19
76541;BMP280;65385;55.772;37.658;2023-03-14T00:12:19;99447.88;;;-3.16
76541;BMP280;65385;55.772;37.658;2023-03-14T00:13:19;99441.81;;;-3.15
76541;BMP280;65385;55.772;37.658;2023-03-14T00:14:20;99443.22;;;-3.13
76541;BMP280;65385;55.772;37.658;2023-03-14T00:15:20;99439.69;;;-3.12
76541;BMP280;65385;55.772;37.658;2023-03-14T00:16:21;99430.28;;;-3.11
76541;BMP280;65385;55.772;37.658;2023-03-14T00:17:21;99431.84;;;-3.10
76541;BMP280;65385;55.772;37.658;2023-03-14T00:18:23;99428.34;;;-3.09
76541;BMP280;65385;55.772;37.658;2023-03-14T00:19:24;99427.53;;;-3.10
76541;BMP280;65385;55.772;37.658;2023-03-14T00:20:25;99423.06;;;-3.08
76541;BMP280;65385;55.772;37.658;2023-03-14T00:21:25;99417.94;;;-3.08
76541;BMP280;65385;55.772;37.658;2023-03-14T00:22:26;99415.84;;;-3.04
76541;BMP280;65385;55.772;37.658;2023-03-14T00:23:28;99413.09;;;-3.02
76541;BMP280;65385;55.772;37.658;2023-03-14T00:24:29;99416.31;;;-3.00
76541;BMP280;65385;55.772;37.658;2023-03-14T00:25:29;99412.59;;;-2.98
76541;BMP280;65385;55.772;37.658;2023-03-14T00:26:30;99403.94;;;-2.97
76541;BMP280;65385;55.772;37.658;2023-03-14T00:27:31;99399.78;;;-2.98
76541;BMP280;65385;55.772;37.658;2023-03-14T00:28:32;99406.34;;;-2.95
76541;BMP280;65385;55.772;37.658;2023-03-14T00:29:33;99399.47;;;-2.95
76541;BMP280;65385;55.772;37.658;2023-03-14T00:30:33;99396.91;;;-2.95
76541;BMP280;65385;55.772;37.658;2023-03-14T00:31:34;99392.75;;;-2.96
76541;BMP280;65385;55.772;37.658;2023-03-14T00:32:36;99391.78;;;-2.95
76541;BMP280;65385;55.772;37.658;2023-03-14T00:33:37;99390.84;;;-2.94
76541;BMP280;65385;55.772;37.658;2023-03-14T00:34:37;99385.72;;;-2.94
76541;BMP280;65385;55.772;37.658;2023-03-14T00:35:38;99379.81;;;-2.94
76541;BMP280;65385;55.772;37.658;2023-03-14T00:36:39;99383.03;;;-2.92
76541;BMP280;65385;55.772;37.658;2023-03-14T00:37:39;99388.91;;;-2.92
76541;BMP280;65385;55.772;37.658;2023-03-14T00:38:41;99390.16;;;-2.88
76541;BMP280;65385;55.772;37.658;2023-03-14T00:39:42;99388.56;;;-2.89
76541;BMP280;65385;55.772;37.658;2023-03-14T00:40:43;99389.19;;;-2.87
76541;BMP280;65385;55.772;37.658;2023-03-14T00:41:44;99379.78;;;-2.86
76541;BMP280;65385;55.772;37.658;2023-03-14T00:42:44;99383.72;;;-2.84
76541;BMP280;65385;55.772;37.658;2023-03-14T00:43:45;99385.31;;;-2.83
76541;BMP280;65385;55.772;37.658;2023-03-14T00:44:46;99390.09;;;-2.80
76541;BMP280;65385;55.772;37.658;2023-03-14T00:45:47;99389.13;;;-2.79
76541;BMP280;65385;55.772;37.658;2023-03-14T00:46:48;99390.69;;;-2.78
76541;BMP280;65385;55.772;37.658;2023-03-14T00:47:48;99390.34;;;-2.75
76541;BMP280;65385;55.772;37.658;2023-03-14T00:48:49;99391.94;;;-2.74
76541;BMP280;65385;55.772;37.658;2023-03-14T00:49:50;99395.13;;;-2.72
76541;BMP280;65385;55.772;37.658;2023-03-14T00:50:53;99379.34;;;-2.75
76541;BMP280;65385;55.772;37.658;2023-03-14T00:51:53;99389.22;;;-2.72
76541;BMP280;65385;55.772;37.658;2023-03-14T00:52:54;99393.97;;;-2.69
76541;BMP280;65385;55.772;37.658;2023-03-14T00:53:54;99384.53;;;-2.69
76541;BMP280;65385;55.772;37.658;2023-03-14T00:54:55;99385.34;;;-2.68
76541;BMP280;65385;55.772;37.658;2023-03-14T00:55:55;99377.50;;;-2.67
76541;BMP280;65385;55.772;37.658;2023-03-14T00:56:56;99380.69;;;-2.64
76541;BMP280;65385;55.772;37.658;2023-03-14T00:57:57;99367.72;;;-2.63
76541;BMP280;65385;55.772;37.658;2023-03-14T00:58:57;99372.50;;;-2.60
76541;BMP280;65385;55.772;37.658;2023-03-14T00:59:58;99357.94;;;-2.59
76541;BMP280;65385;55.772;37.658;2023-03-14T01:00:58;99367.03;;;-2.57
76541;BMP280;65385;55.772;37.658;2023-03-14T01:01:59;99353.28;;;-2.56
76541;BMP280;65385;55.772;37.658;2023-03-14T01:03:00;99354.06;;;-2.55
76541;BMP280;65385;55.772;37.658;2023-03-14T01:04:01;99354.69;;;-2.53
76541;BMP280;65385;55.772;37.658;2023-03-14T01:05:02;99351.78;;;-2.50
76541;BMP280;65385;55.772;37.658;2023-03-14T01:06:10;99348.25;;;-2.49
76541;BMP280;65385;55.772;37.658;2023-03-14T01:07:11;99353.97;;;-2.47
76541;BMP280;65385;55.772;37.658;2023-03-14T01:08:13;99361.47;;;-2.46
76541;BMP280;65385;55.772;37.658;2023-03-14T01:09:13;99365.78;;;-2.46
76541;BMP280;65385;55.772;37.658;2023-03-14T01:10:15;99364.03;;;-2.46
76541;BMP280;65385;55.772;37.658;2023-03-14T01:11:20;99360.50;;;-2.45
76541;BMP280;65385;55.772;37.658;2023-03-14T01:12:21;99356.34;;;-2.46
76541;BMP280;65385;55.772;37.658;2023-03-14T01:13:21;99360.50;;;-2.45
76541;BMP280;65385;55.772;37.658;2023-03-14T01:14:22;99356.34;;;-2.46
76541;BMP280;65385;55.772;37.658;2023-03-14T01:15:22;99365.44;;;-2.43
76541;BMP280;65385;55.772;37.658;2023-03-14T01:16:24;99360.97;;;-2.41
76541;BMP280;65385;55.772;37.658;2023-03-14T01:17:25;99359.38;;;-2.42
76541;BMP280;65385;55.772;37.658;2023-03-14T01:18:26;99360.97;;;-2.41
76541;BMP280;65385;55.772;37.658;2023-03-14T01:19:28;99366.50;;;-2.38
76541;BMP280;65385;55.772;37.658;2023-03-14T01:20:28;99360.97;;;-2.41
76541;BMP280;65385;55.772;37.658;2023-03-14T01:21:34;99362.19;;;-2.37
76541;BMP280;65385;55.772;37.658;2023-03-14T01:22:36;99364.56;;;-2.36
76541;BMP280;65385;55.772;37.658;2023-03-14T01:23:36;99359.44;;;-2.36
76541;BMP280;65385;55.772;37.658;2023-03-14T01:24:37;99353.53;;;-2.36
76541;BMP280;65385;55.772;37.658;2023-03-14T01:25:41;99351.16;;;-2.38
76541;BMP280;65385;55.772;37.658;2023-03-14T01:26:42;99346.03;;;-2.38
76541;BMP280;65385;55.772;37.658;2023-03-14T01:27:44;99345.84;;;-2.36
76541;BMP280;65385;55.772;37.658;2023-03-14T01:28:45;99339.16;;;-2.37
76541;BMP280;65385;55.772;37.658;2023-03-14T01:29:46;99328.91;;;-2.37
76541;BMP280;65385;55.772;37.658;2023-03-14T01:30:47;99317.69;;;-2.36
76541;BMP280;65385;55.772;37.658;2023-03-14T01:31:48;99318.66;;;-2.37
76541;BMP280;65385;55.772;37.658;2023-03-14T01:32:48;99304.28;;;-2.38
76541;BMP280;65385;55.772;37.658;2023-03-14T01:33:49;99305.44;;;-2.41
76541;BMP280;65385;55.772;37.658;2023-03-14T01:34:50;99299.88;;;-2.44
76541;BMP280;65385;55.772;37.658;2023-03-14T01:35:50;99299.09;;;-2.45
76541;BMP280;65385;55.772;37.658;2023-03-14T01:36:51;99296.53;;;-2.45
76541;BMP280;65385;55.772;37.658;2023-03-14T01:37:52;99289.81;;;-2.46
76541;BMP280;65385;55.772;37.658;2023-03-14T01:38:56;99285.84;;;-2.48
76541;BMP280;65385;55.772;37.658;2023-03-14T01:39:57;99284.88;;;-2.47
76541;BMP280;65385;55.772;37.658;2023-03-14T01:40:58;99282.31;;;-2.47
76541;BMP280;65385;55.772;37.658;2023-03-14T01:42:00;99287.44;;;-2.47
76541;BMP280;65385;55.772;37.658;2023-03-14T01:43:12;99285.66;;;-2.47
76541;BMP280;65385;55.772;37.658;2023-03-14T01:44:13;99290.78;;;-2.47
76541;BMP280;65385;55.772;37.658;2023-03-14T01:46:52;99282.16;;;-2.46
76541;BMP280;65385;55.772;37.658;2023-03-14T01:47:53;99290.63;;;-2.45
76541;BMP280;65385;55.772;37.658;2023-03-14T01:49:31;99277.09;;;-2.39
76541;BMP280;65385;55.772;37.658;2023-03-14T01:50:42;99278.28;;;-2.42
76541;BMP280;65385;55.772;37.658;2023-03-14T01:51:53;99267.84;;;-2.40
76541;BMP280;65385;55.772;37.658;2023-03-14T01:52:56;99275.50;;;-2.40
76541;BMP280;65385;55.772;37.658;2023-03-14T01:54:08;99268.63;;;-2.40
76541;BMP280;65385;55.772;37.658;2023-03-14T01:55:14;99264.31;;;-2.39
76541;BMP280;65385;55.772;37.658;2023-03-14T01:56:17;99260.78;;;-2.38
76541;BMP280;65385;55.772;37.658;2023-03-14T01:57:30;99262.97;;;-2.35
76541;BMP280;65385;55.772;37.658;2023-03-14T01:58:32;99265.72;;;-2.37
76541;BMP280;65385;55.772;37.658;2023-03-14T01:59:36;99271.63;;;-2.36
76541;BMP280;65385;55.772;37.658;2023-03-14T02:00:38;99264.75;;;-2.36
76541;BMP280;65385;55.772;37.658;2023-03-14T02:01:41;99266.13;;;-2.33
76541;BMP280;65385;55.772;37.658;2023-03-14T02:02:45;99260.84;;;-2.32
76541;BMP280;65385;55.772;37.658;2023-03-14T02:03:54;99258.47;;;-2.33
76541;BMP280;65385;55.772;37.658;2023-03-14T02:04:56;99256.53;;;-2.31
76541;BMP280;65385;55.772;37.658;2023-03-14T02:06:04;99256.53;;;-2.31
76541;BMP280;65385;55.772;37.658;2023-03-14T02:08:21;99251.09;;;-2.28
76541;BMP280;65385;55.772;37.658;2023-03-14T02:09:29;99250.13;;;-2.27
76541;BMP280;65385;55.772;37.658;2023-03-14T02:10:33;99249.72;;;-2.24
76541;BMP280;65385;55.772;37.658;2023-03-14T02:11:36;99240.28;;;-2.23
76541;BMP280;65385;55.772;37.658;2023-03-14T02:12:40;99242.84;;;-2.23
76541;BMP280;65385;55.772;37.658;2023-03-14T02:13:55;99250.19;;;-2.20
76541;BMP280;65385;55.772;37.658;2023-03-14T02:14:57;99239.16;;;-2.21
76541;BMP280;65385;55.772;37.658;2023-03-14T02:16:04;99242.13;;;-2.17
76541;BMP280;65385;55.772;37.658;2023-03-14T02:17:16;99244.34;;;-2.14
76541;BMP280;65385;55.772;37.658;2023-03-14T02:18:37;99225.63;;;-2.15
76541;BMP280;65385;55.772;37.658;2023-03-14T02:20:06;99223.28;;;-2.10
76541;BMP280;65385;55.772;37.658;2023-03-14T02:22:16;99203.78;;;-2.11
76541;BMP280;65385;55.772;37.658;2023-03-14T02:26:03;99215.09;;;-2.05
76541;BMP280;65385;55.772;37.658;2023-03-14T02:28:15;99208.78;;;-2.03
76541;BMP280;65385;55.772;37.658;2023-03-14T02:29:17;99205.88;;;-2.00
76541;BMP280;65385;55.772;37.658;2023-03-14T02:30:21;99206.28;;;-1.96
76541;BMP280;65385;55.772;37.658;2023-03-14T02:31:23;99194.25;;;-1.96
76541;BMP280;65385;55.772;37.658;2023-03-14T02:32:24;99187.19;;;-1.94
76541;BMP280;65385;55.772;37.658;2023-03-14T02:33:26;99184.28;;;-1.90
76541;BMP280;65385;55.772;37.658;2023-03-14T02:34:27;99188.22;;;-1.88
76541;BMP280;65385;55.772;37.658;2023-03-14T02:35:33;99174.44;;;-1.87
76541;BMP280;65385;55.772;37.658;2023-03-14T02:36:35;99172.06;;;-1.88
76541;BMP280;65385;55.772;37.658;2023-03-14T02:37:41;99162.09;;;-1.83
76541;BMP280;65385;55.772;37.658;2023-03-14T02:38:47;99157.16;;;-1.85
76541;BMP280;65385;55.772;37.658;2023-03-14T02:39:51;99155.22;;;-1.83
76541;BMP280;65385;55.772;37.658;2023-03-14T02:40:52;99163.06;;;-1.84
76541;BMP280;65385;55.772;37.658;2023-03-14T02:41:53;99155.97;;;-1.82
76541;BMP280;65385;55.772;37.658;2023-03-14T02:42:54;99167.81;;;-1.81
76541;BMP280;65385;55.772;37.658;2023-03-14T02:43:54;99161.53;;;-1.79
76541;BMP280;65385;55.772;37.658;2023-03-14T02:46:19;99155.97;;;-1.82
76541;BMP280;65385;55.772;37.658;2023-03-14T02:47:27;99160.75;;;-1.79
76541;BMP280;65385;55.772;37.658;2023-03-14T02:48:33;99159.94;;;-1.80
76541;BMP280;65385;55.772;37.658;2023-03-14T02:49:35;99147.94;;;-1.79
76541;BMP280;65385;55.772;37.658;2023-03-14T02:50:35;99146.78;;;-1.77
76541;BMP280;65385;55.772;37.658;2023-03-14T02:51:37;99151.09;;;-1.77
76541;BMP280;65385;55.772;37.658;2023-03-14T02:52:40;99150.13;;;-1.76
76541;BMP280;65385;55.772;37.658;2023-03-14T02:53:41;99145.00;;;-1.76
76541;BMP280;65385;55.772;37.658;2023-03-14T02:54:45;99148.38;;;-1.76
76541;BMP280;65385;55.772;37.658;2023-03-14T02:55:47;99140.47;;;-1.74
76541;BMP280;65385;55.772;37.658;2023-03-14T02:56:50;99142.22;;;-1.75
76541;BMP280;65385;55.772;37.658;2023-03-14T02:57:51;99139.88;;;-1.76
76541;BMP280;65385;55.772;37.658;2023-03-14T02:58:51;99141.09;;;-1.72
76541;BMP280;65385;55.772;37.658;2023-03-14T03:00:17;99138.50;;;-1.72
76541;BMP280;65385;55.772;37.658;2023-03-14T03:01:18;99138.50;;;-1.72
76541;BMP280;65385;55.772;37.658;2023-03-14T03:02:18;99147.78;;;-1.71
76541;BMP280;65385;55.772;37.658;2023-03-14T03:03:19;99151.94;;;-1.70
76541;BMP280;65385;55.772;37.658;2023-03-14T03:04:22;99146.03;;;-1.71
76541;BMP280;65385;55.772;37.658;2023-03-14T03:05:22;99145.22;;;-1.71
76541;BMP280;65385;55.772;37.658;2023-03-14T03:06:23;99133.03;;;-1.69
76541;BMP280;65385;55.772;37.658;2023-03-14T03:07:24;99141.50;;;-1.69
76541;BMP280;65385;55.772;37.658;2023-03-14T03:08:26;99137.94;;;-1.68
76541;BMP280;65385;55.772;37.658;2023-03-14T03:09:28;99132.47;;;-1.65
76541;BMP280;65385;55.772;37.658;2023-03-14T03:10:28;99138.56;;;-1.66
76541;BMP280;65385;55.772;37.658;2023-03-14T03:11:30;99164.78;;;-1.64
76541;BMP280;65385;55.772;37.658;2023-03-14T03:12:32;99149.03;;;-1.61
76541;BMP280;65385;55.772;37.658;2023-03-14T03:13:32;99153.19;;;-1.60
76541;BMP280;65385;55.772;37.658;2023-03-14T03:14:35;99149.81;;;-1.60
76541;BMP280;65385;55.772;37.658;2023-03-14T03:15:38;99138.00;;;-1.61
76541;BMP280;65385;55.772;37.658;2023-03-14T03:16:38;99127.00;;;-1.55
76541;BMP280;65385;55.772;37.658;2023-03-14T03:17:39;99136.28;;;-1.54
76541;BMP280;65385;55.772;37.658;2023-03-14T03:18:40;99140.81;;;-1.56
76541;BMP280;65385;55.772;37.658;2023-03-14T03:19:40;99142.00;;;-1.52
76541;BMP280;65385;55.772;37.658;2023-03-14T03:20:41;99144.19;;;-1.49
76541;BMP280;65385;55.772;37.658;2023-03-14T03:21:41;99130.97;;;-1.46
76541;BMP280;65385;55.772;37.658;2023-03-14T03:22:42;99141.63;;;-1.49
76541;BMP280;65385;55.772;37.658;2023-03-14T03:23:43;99136.09;;;-1.46
76541;BMP280;65385;55.772;37.658;2023-03-14T03:24:44;99125.50;;;-1.43
76541;BMP280;65385;55.772;37.658;2023-03-14T03:25:49;99131.81;;;-1.39
76541;BMP280;65385;55.772;37.658;2023-03-14T03:26:50;99131.03;;;-1.39
76541;BMP280;65385;55.772;37.658;2023-03-14T03:27:50;99119.59;;;-1.37
76541;BMP280;65385;55.772;37.658;2023-03-14T03:28:52;99109.34;;;-1.37
76541;BMP280;65385;55.772;37.658;2023-03-14T03:29:53;99108.19;;;-1.34
76541;BMP280;65385;55.772;37.658;2023-03-14T03:30:53;99110.94;;;-1.36
76541;BMP280;65385;55.772;37.658;2023-03-14T03:31:54;99113.16;;;-1.33
76541;BMP280;65385;55.772;37.658;2023-03-14T03:32:55;99103.69;;;-1.32
76541;BMP280;65385;55.772;37.658;2023-03-14T03:33:56;99099.94;;;-1.30
76541;BMP280;65385;55.772;37.658;2023-03-14T03:34:58;99108.25;;;-1.28
76541;BMP280;65385;55.772;37.658;2023-03-14T03:35:59;99107.25;;;-1.27
76541;BMP280;65385;55.772;37.658;2023-03-14T03:37:04;99092.28;;;-1.23
76541;BMP280;65385;55.772;37.658;2023-03-14T03:38:09;99093.69;;;-1.21
76541;BMP280;65385;55.772;37.658;2023-03-14T03:39:12;99087.94;;;-1.23
76541;BMP280;65385;55.772;37.658;2023-03-14T03:40:12;99086.59;;;-1.19
76541;BMP280;65385;55.772;37.658;2023-03-14T03:41:13;99079.88;;;-1.20
76541;BMP280;65385;55.772;37.658;2023-03-14T03:42:14;99080.28;;;-1.16
76541;BMP280;65385;55.772;37.658;2023-03-14T03:43:14;99082.66;;;-1.14
76541;BMP280;65385;55.772;37.658;2023-03-14T03:44:18;99062.94;;;-1.14
76541;BMP280;65385;55.772;37.658;2023-03-14T03:45:18;99068.47;;;-1.10
76541;BMP280;65385;55.772;37.658;2023-03-14T03:46:25;99057.81;;;-1.07
76541;BMP280;65385;55.772;37.658;2023-03-14T03:47:27;99079.91;;;-1.06
76541;BMP280;65385;55.772;37.658;2023-03-14T03:48:28;99067.50;;;-1.03
76541;BMP280;65385;55.772;37.658;2023-03-14T03:49:32;99070.88;;;-1.02
76541;BMP280;65385;55.772;37.658;2023-03-14T03:50:33;99066.13;;;-0.99
76541;BMP280;65385;55.772;37.658;2023-03-14T03:51:34;99075.59;;;-0.99
76541;BMP280;65385;55.772;37.658;2023-03-14T03:52:34;99062.78;;;-0.99
76541;BMP280;65385;55.772;37.658;2023-03-14T03:53:35;99056.28;;;-0.95
76541;BMP280;65385;55.772;37.658;2023-03-14T03:54:40;99062.00;;;-0.93
76541;BMP280;65385;55.772;37.658;2023-03-14T03:55:41;99063.19;;;-0.89
76541;BMP280;65385;55.772;37.658;2023-03-14T03:56:43;99054.53;;;-0.88
76541;BMP280;65385;55.772;37.658;2023-03-14T03:57:43;99049.16;;;-0.87
76541;BMP280;65385;55.772;37.658;2023-03-14T03:58:45;99046.41;;;-0.85
76541;BMP280;65385;55.772;37.658;2023-03-14T03:59:46;99056.31;;;-0.82
76541;BMP280;65385;55.772;37.658;2023-03-14T04:00:48;99048.19;;;-0.79
76541;BMP280;65385;55.772;37.658;2023-03-14T04:01:48;99055.53;;;-0.76
76541;BMP280;65385;55.772;37.658;2023-03-14T04:02:49;99064.19;;;-0.77
76541;BMP280;65385;55.772;37.658;2023-03-14T04:03:51;99051.19;;;-0.75
76541;BMP280;65385;55.772;37.658;2023-03-14T04:04:53;99065.19;;;-0.71
76541;BMP280;65385;55.772;37.658;2023-03-14T04:06:05;99060.28;;;-0.66
76541;BMP280;65385;55.772;37.658;2023-03-14T04:07:07;99035.00;;;-0.69
76541;BMP280;65385;55.772;37.658;2023-03-14T04:08:09;99048.81;;;-0.64
76541;BMP280;65385;55.772;37.658;2023-03-14T04:09:10;99056.91;;;-0.60
76541;BMP280;65385;55.772;37.658;2023-03-14T04:10:16;99051.59;;;-0.59
76541;BMP280;65385;55.772;37.658;2023-03-14T04:11:30;99060.47;;;-0.55
76541;BMP280;65385;55.772;37.658;2023-03-14T04:12:44;99036.19;;;-0.52
76541;BMP280;65385;55.772;37.658;2023-03-14T04:13:50;99032.25;;;-0.48
76541;BMP280;65385;55.772;37.658;2023-03-14T04:14:50;99039.75;;;-0.47
76541;BMP280;65385;55.772;37.658;2023-03-14T04:15:56;99037.00;;;-0.45
76541;BMP280;65385;55.772;37.658;2023-03-14T04:16:59;99033.22;;;-0.43
76541;BMP280;65385;55.772;37.658;2023-03-14T04:18:00;99032.22;;;-0.42
76541;BMP280;65385;55.772;37.658;2023-03-14T04:19:01;99042.13;;;-0.39
76541;BMP280;65385;55.772;37.658;2023-03-14T04:20:02;99036.00;;;-0.38
76541;BMP280;65385;55.772;37.658;2023-03-14T04:21:09;99036.19;;;-0.32
76541;BMP280;65385;55.772;37.658;2023-03-14T04:22:18;99022.75;;;-0.34
76541;BMP280;65385;55.772;37.658;2023-03-14T04:23:23;99024.78;;;-0.30
76541;BMP280;65385;55.772;37.658;2023-03-14T04:24:24;99026.72;;;-0.25
76541;BMP280;65385;55.772;37.658;2023-03-14T04:25:25;99033.44;;;-0.24
76541;BMP280;65385;55.772;37.658;2023-03-14T04:26:29;99034.41;;;-0.19
76541;BMP280;65385;55.772;37.658;2023-03-14T04:27:31;99032.25;;;-0.22
76541;BMP280;65385;55.772;37.658;2023-03-14T04:28:32;99021.97;;;-0.15
76541;BMP280;65385;55.772;37.658;2023-03-14T04:29:33;99021.75;;;-0.14
76541;BMP280;65385;55.772;37.658;2023-03-14T04:30:34;99013.06;;;-0.13
76541;BMP280;65385;55.772;37.658;2023-03-14T04:31:41;99009.91;;;-0.08
76541;BMP280;65385;55.772;37.658;2023-03-14T04:32:41;99023.13;;;-0.05
76541;BMP280;65385;55.772;37.658;2023-03-14T04:33:42;99011.28;;;-0.06
76541;BMP280;65385;55.772;37.658;2023-03-14T04:34:43;99014.06;;;-0.01
76541;BMP280;65385;55.772;37.658;2023-03-14T04:35:47;99017.78;;;0.04
76541;BMP280;65385;55.772;37.658;2023-03-14T04:36:49;99017.41;;;0.07
76541;BMP280;65385;55.772;37.658;2023-03-14T04:37:54;99017.97;;;0.09
76541;BMP280;65385;55.772;37.658;2023-03-14T04:38:56;99012.63;;;0.10
76541;BMP280;65385;55.772;37.658;2023-03-14T04:39:58;99003.16;;;0.11
76541;BMP280;65385;55.772;37.658;2023-03-14T04:41:01;99012.81;;;0.15
76541;BMP280;65385;55.772;37.658;2023-03-14T04:42:05;99009.25;;;0.16
76541;BMP280;65385;55.772;37.658;2023-03-14T04:43:08;99006.28;;;0.19
76541;BMP280;65385;55.772;37.658;2023-03-14T04:44:10;99006.88;;;0.21
76541;BMP280;65385;55.772;37.658;2023-03-14T04:45:11;98999.53;;;0.25
76541;BMP280;65385;55.772;37.658;2023-03-14T04:46:13;98996.97;;;0.25
76541;BMP280;65385;55.772;37.658;2023-03-14T04:47:14;98990.06;;;0.25
76541;BMP280;65385;55.772;37.658;2023-03-14T04:48:15;98995.78;;;0.27
76541;BMP280;65385;55.772;37.658;2023-03-14T04:49:16;98997.38;;;0.28
76541;BMP280;65385;55.772;37.658;2023-03-14T04:50:17;98990.22;;;0.30
76541;BMP280;65385;55.772;37.658;2023-03-14T04:51:17;98995.91;;;0.32
76541;BMP280;65385;55.772;37.658;2023-03-14T04:52:19;98981.88;;;0.35
76541;BMP280;65385;55.772;37.658;2023-03-14T04:53:20;99000.44;;;0.37
76541;BMP280;65385;55.772;37.658;2023-03-14T04:54:23;98993.13;;;0.40
76541;BMP280;65385;55.772;37.658;2023-03-14T04:55:28;98985.78;;;0.44
76541;BMP280;65385;55.772;37.658;2023-03-14T04:56:30;98977.06;;;0.45
76541;BMP280;65385;55.772;37.658;2023-03-14T04:57:31;98978.47;;;0.48
76541;BMP280;65385;55.772;37.658;2023-03-14T04:58:32;98967.59;;;0.46
76541;BMP280;65385;55.772;37.658;2023-03-14T04:59:34;98969.16;;;0.47
76541;BMP280;65385;55.772;37.658;2023-03-14T05:00:46;98967.97;;;0.49
76541;BMP280;65385;55.772;37.658;2023-03-14T05:02:19;98972.28;;;0.55
76541;BMP280;65385;55.772;37.658;2023-03-14T05:03:34;98963.00;;;0.54
76541;BMP280;65385;55.772;37.658;2023-03-14T05:04:51;98966.31;;;0.61
76541;BMP280;65385;55.772;37.658;2023-03-14T05:06:12;98959.00;;;0.65
76541;BMP280;65385;55.772;37.658;2023-03-14T05:07:31;98949.31;;;0.60
76541;BMP280;65385;55.772;37.658;2023-03-14T05:08:57;98960.75;;;0.71
76541;BMP280;65385;55.772;37.658;2023-03-14T05:10:12;98954.38;;;0.73
76541;BMP280;65385;55.772;37.658;2023-03-14T05:11:42;98943.69;;;0.76
76541;BMP280;65385;55.772;37.658;2023-03-14T05:12:55;98949.22;;;0.80
76541;BMP280;65385;55.772;37.658;2023-03-14T05:14:17;98956.28;;;0.85
76541;BMP280;65385;55.772;37.658;2023-03-14T05:15:53;98942.78;;;0.89
76541;BMP280;65385;55.772;37.658;2023-03-14T05:17:14;98940.16;;;0.96
76541;BMP280;65385;55.772;37.658;2023-03-14T05:18:33;98930.47;;;0.98
76541;BMP280;65385;55.772;37.658;2023-03-14T05:19:44;98933.41;;;1.01
76541;BMP280;65385;55.772;37.658;2023-03-14T05:20:44;98930.22;;;1.06
76541;BMP280;65385;55.772;37.658;2023-03-14T05:22:18;98937.53;;;1.09
76541;BMP280;65385;55.772;37.658;2023-03-14T05:23:43;98937.88;;;1.12
76541;BMP280;65385;55.772;37.658;2023-03-14T05:25:06;98935.88;;;1.14
76541;BMP280;65385;55.772;37.658;2023-03-14T05:26:23;98941.19;;;1.19
76541;BMP280;65385;55.772;37.658;2023-03-14T05:27:42;98943.34;;;1.23
76541;BMP280;65385;55.772;37.658;2023-03-14T05:29:03;98929.03;;;1.27
76541;BMP280;65385;55.772;37.658;2023-03-14T05:30:23;98943.28;;;1.29
76541;BMP280;65385;55.772;37.658;2023-03-14T05:31:53;98938.84;;;1.36
76541;BMP280;65385;55.772;37.658;2023-03-14T05:33:10;98939.44;;;1.38
76541;BMP280;65385;55.772;37.658;2023-03-14T05:34:29;98943.13;;;1.42
76541;BMP280;65385;55.772;37.658;2023-03-14T05:35:44;98949.44;;;1.46
76541;BMP280;65385;55.772;37.658;2023-03-14T05:37:03;98963.28;;;1.52
76541;BMP280;65385;55.772;37.658;2023-03-14T05:38:23;98965.84;;;1.52
76541;BMP280;65385;55.772;37.658;2023-03-14T05:39:44;98956.53;;;1.51
76541;BMP280;65385;55.772;37.658;2023-03-14T05:41:05;98960.47;;;1.53
76541;BMP280;65385;55.772;37.658;2023-03-14T05:42:16;98960.25;;;1.55
76541;BMP280;65385;55.772;37.658;2023-03-14T05:43:39;98960.63;;;1.58
76541;BMP280;65385;55.772;37.658;2023-03-14T05:44:58;98946.16;;;1.57
76541;BMP280;65385;55.772;37.658;2023-03-14T05:46:17;98948.09;;;1.62
76541;BMP280;65385;55.772;37.658;2023-03-14T05:47:38;98947.69;;;1.65
76541;BMP280;65385;55.772;37.658;2023-03-14T05:48:58;98941.66;;;1.71
76541;BMP280;65385;55.772;37.658;2023-03-14T05:50:20;98950.19;;;1.72
76541;BMP280;65385;55.772;37.658;2023-03-14T05:51:42;98945.97;;;1.77
76541;BMP280;65385;55.772;37.658;2023-03-14T05:53:11;98951.69;;;1.79
76541;BMP280;65385;55.772;37.658;2023-03-14T05:54:47;98956.00;;;1.85
76541;BMP280;65385;55.772;37.658;2023-03-14T05:56:16;98954.56;;;1.89
76541;BMP280;65385;55.772;37.658;2023-03-14T05:57:32;98955.69;;;1.93
76541;BMP280;65385;55.772;37.658;2023-03-14T05:58:56;98957.41;;;1.99
76541;BMP280;65385;55.772;37.658;2023-03-14T06:00:04;98967.09;;;2.04
76541;BMP280;65385;55.772;37.658;2023-03-14T06:01:21;98963.25;;;2.07
76541;BMP280;65385;55.772;37.658;2023-03-14T06:02:43;98962.97;;;2.15
76541;BMP280;65385;55.772;37.658;2023-03-14T06:03:53;98973.88;;;2.17
76541;BMP280;65385;55.772;37.658;2023-03-14T06:04:54;98970.84;;;2.20
76541;BMP280;65385;55.772;37.658;2023-03-14T06:05:54;98977.75;;;2.26
76541;BMP280;65385;55.772;37.658;2023-03-14T06:06:57;98968.97;;;2.27
76541;BMP280;65385;55.772;37.658;2023-03-14T06:07:57;98963.81;;;2.27
76541;BMP280;65385;55.772;37.658;2023-03-14T06:08:59;98968.09;;;2.33
76541;BMP280;65385;55.772;37.658;2023-03-14T06:10:00;98965.66;;;2.38
76541;BMP280;65385;55.772;37.658;2023-03-14T06:11:02;98963.88;;;2.38
76541;BMP280;65385;55.772;37.658;2023-03-14T06:12:05;98944.81;;;2.39
76541;BMP280;65385;55.772;37.658;2023-03-14T06:13:11;98952.88;;;2.43
76541;BMP280;65385;55.772;37.658;2023-03-14T06:14:12;98957.53;;;2.53
76541;BMP280;65385;55.772;37.658;2023-03-14T06:15:15;98950.91;;;2.57
76541;BMP280;65385;55.772;37.658;2023-03-14T06:16:19;98952.94;;;2.55
76541;BMP280;65385;55.772;37.658;2023-03-14T06:17:19;98940.16;;;2.60
76541;BMP280;65385;55.772;37.658;2023-03-14T06:18:26;98944.09;;;2.62
76541;BMP280;65385;55.772;37.658;2023-03-14T06:19:27;98939.94;;;2.61
76541;BMP280;65385;55.772;37.658;2023-03-14T06:20:28;98937.88;;;2.63